• Join FlightAware (Why Join?)
  • Login
  • US Flag 
06:57PM EST


 

Airport Tracker/Info


-or-


 

Live Flight TrackerFlight Track Log ✈ AAY855 ✈ 20-Mar-2014 ✈ KSBN - KPIE

Flight Track Log - Related Links

Times and Time Zones

All times are in EDT time to prevent confusion due to time zone crossing. See the AAY855 flight status page for this flight to view local times or setup timezone preferences in your user account.

Time Position Orientation Groundspeed Altitude Reporting Facility
EDT Latitude Longitude Course Direction KTS MPH feet Rate Location/Type
06:04PM 41.6981 -86.3583 130° Southeast 169 194 2,500  Level Chicago Center
06:05PM 41.6547 -86.3839 204° Southwest 211 243 5,200 2,226 Climbing Chicago Center
06:06PM 41.6000 -86.3128 136° Southeast 244 281 7,100 2,226 Climbing Chicago Center
06:07PM 41.5200 -86.2953 171° South 289 333 9,800 2,129 Climbing Chicago Center
06:08PM 41.4322 -86.2758 171° South 320 368 11,500 1,790 Climbing Chicago Center
06:09PM 41.3242 -86.2558 172° South 388 447 13,500 2,129 Climbing Chicago Center
06:10PM 41.2636 -85.6225 130° Southeast  Level FlightAware Approximate
06:10PM 41.2119 -86.2350 172° South 406 467 15,900  Level Chicago Center
06:11PM 41.0725 -86.2106 172° South 419 482 18,600 2,400 Climbing Chicago Center
06:13PM 40.9517 -86.1881 172° South 435 501 20,900 2,064 Climbing Chicago Center
06:14PM 40.8297 -86.1514 167° South 452 520 22,900 1,597 Climbing Chicago Center
06:15PM 40.7033 -86.1264 171° South 454 522 24,200 1,694 Climbing Chicago Center
06:16PM 40.5631 -86.0964 171° South 466 536 26,400 1,452 Climbing Chicago Center
06:17PM 40.4356 -86.0708 171° South 466 536 27,200 871 Climbing Chicago Center
06:18PM 40.3053 -86.0464 172° South 468 539 28,200 968 Climbing Chicago Center
06:19PM 40.1706 -86.0197 171° South 481 554 29,200 871 Climbing Chicago Center
06:20PM 40.0361 -85.9950 172° South 485 558 30,000 387 Climbing Chicago Center
06:21PM 39.8756 -85.9886 178° South 475 547 30,000  Level Chicago Center
06:22PM 39.7439 -86.0108 187° South 470 541 30,000  Level Chicago Center
06:23PM 39.6117 -86.0306 187° South 470 541 30,000 435 Level Chicago Center
06:24PM 39.4794 -86.0511 187° South 472 543 30,900 871 Climbing Chicago Center
06:25PM 39.3425 -86.0472 179° South 498 573 31,800 840 Climbing Chicago Center
06:26PM 39.1556 -86.0006 169° South 490 564 33,000 480 Climbing Indianapolis Center
06:27PM 38.9961 -85.9689 171° South 487 560 33,000  Level Indianapolis Center
06:28PM 38.8569 -85.9403 171° South 487 560 33,000  Level Indianapolis Center
06:30PM 38.7233 -85.9125 171° South 486 559 33,000  Level Indianapolis Center
06:31PM 38.5914 -85.8842 170° South 483 556 33,000  Level Indianapolis Center
06:32PM 38.4578 -85.8561 171° South 482 555 33,000  Level Indianapolis Center
06:33PM 38.3242 -85.8294 171° South 482 555 33,000  Level Indianapolis Center
06:34PM 38.1903 -85.8008 170° South 482 555 33,000  Level Indianapolis Center
06:35PM 38.0578 -85.7714 170° South 482 555 33,000  Level Indianapolis Center
06:36PM 37.9244 -85.7447 171° South 482 555 33,000  Level Indianapolis Center
06:37PM 37.7656 -85.7128 171° South 482 555 33,000  Level Indianapolis Center
06:38PM 37.6344 -85.6847 170° South 480 552 33,000  Level Indianapolis Center
06:39PM 37.5019 -85.6581 171° South 479 551 33,000  Level Indianapolis Center
06:40PM 37.3717 -85.6325 171° South 478 550 33,000  Level Indianapolis Center
06:41PM 37.2369 -85.6047 171° South 474 545 33,000  Level Indianapolis Center
06:42PM 37.1056 -85.5778 171° South 474 545 33,000  Level Indianapolis Center
06:43PM 36.9725 -85.5514 171° South 474 545 33,000  Level Indianapolis Center
06:44PM 36.8392 -85.5231 170° South 475 547 33,000  Level Indianapolis Center
06:45PM 36.6914 -85.4944 171° South 475 547 33,000  Level Indianapolis Center
06:46PM 36.5611 -85.4681 171° South 475 547 33,000  Level Indianapolis Center
06:47PM 36.4308 -85.4422 171° South 475 547 33,000  Level Indianapolis Center
06:48PM 36.3019 -85.4172 171° South 475 547 33,000  Level Indianapolis Center
06:49PM 36.1722 -85.3922 171° South 475 547 33,000  Level Indianapolis Center
06:50PM 36.0164 -85.3614 171° South 474 545 33,000  Level Indianapolis Center
06:51PM 35.8869 -85.3358 171° South 475 547 33,000  Level Indianapolis Center
06:52PM 35.7586 -85.3111 171° South 474 545 33,000  Level Indianapolis Center
06:53PM 35.6300 -85.2869 171° South 474 545 33,000  Level Indianapolis Center
06:54PM 35.4758 -85.2564 171° South 474 545 33,000  Level Indianapolis Center
06:55PM 35.3431 -85.2356 173° South 483 556 33,000  Level Atlanta Center
06:56PM 35.2161 -85.2108 171° South 483 556 33,000  Level Atlanta Center
06:57PM 35.0808 -85.1858 171° South 488 562 33,000  Level Atlanta Center
06:58PM 34.9558 -85.1589 170° South 483 556 33,000  Level Atlanta Center
06:59PM 34.8244 -85.1369 172° South 483 556 33,000  Level Atlanta Center
07:00PM 34.6953 -85.1125 171° South 483 556 33,000  Level Atlanta Center
07:01PM 34.5517 -85.0828 170° South 476 548 33,000  Level Atlanta Center
07:02PM 34.4244 -85.0611 172° South 476 548 33,000  Level Atlanta Center
07:03PM 34.2911 -85.0344 171° South 476 548 33,000  Level Atlanta Center
07:04PM 34.1597 -85.0128 172° South 481 554 33,000  Level Atlanta Center
07:05PM 34.0286 -84.9889 171° South 481 554 33,000  Level Atlanta Center
07:06PM 33.8953 -84.9622 171° South 481 554 33,000  Level Atlanta Center
07:07PM 33.7658 -84.9408 172° South 481 554 33,000  Level Atlanta Center
07:08PM 33.6325 -84.9169 172° South 481 554 33,000  Level Atlanta Center
07:09PM 33.5053 -84.8958 172° South 481 554 33,000  Level Atlanta Center
07:10PM 33.3781 -84.8722 171° South 476 548 33,000  Level Atlanta Center
07:11PM 33.2553 -84.8511 172° South 459 528 33,000  Level Atlanta Center
07:12PM 33.1258 -84.8275 171° South 466 536 33,000  Level Atlanta Center
07:13PM 32.9986 -84.8042 171° South 466 536 33,000  Level Atlanta Center
07:14PM 32.8881 -84.7858 172° South 466 536 33,000  Level Atlanta Center
07:15PM 32.7589 -84.7553 169° South 466 536 33,000  Level Atlanta Center
07:16PM 32.6317 -84.7344 172° South 466 536 33,000  Level Atlanta Center
07:17PM 32.5067 -84.7136 172° South 466 536 33,000  Level Atlanta Center
07:19PM 32.2689 -84.6689 171° South 482 555 33,000  Level Jacksonville Center
07:20PM 32.1461 -84.6469 171° South 476 548 33,000  Level Jacksonville Center
07:21PM 32.0064 -84.6222 171° South 469 540 33,000  Level Jacksonville Center
07:22PM 31.8814 -84.6003 172° South 462 532 33,000  Level Jacksonville Center
07:23PM 31.7569 -84.5589 164° South 462 532 33,000  Level Jacksonville Center
07:24PM 31.6322 -84.5153 163° South 468 539 33,000  Level Jacksonville Center
07:25PM 31.5053 -84.4717 164° South 473 544 33,000  Level Jacksonville Center
07:26PM 31.3783 -84.4281 164° South 473 544 33,000  Level Jacksonville Center
07:27PM 31.2558 -84.3822 162° South 473 544 33,000  Level Jacksonville Center
07:28PM 31.1289 -84.3414 165° South 473 544 33,000  Level Jacksonville Center
07:29PM 31.0019 -84.2958 163° South 473 544 33,000  Level Jacksonville Center
07:30PM 30.8731 -84.2528 164° South 473 544 33,000  Level Jacksonville Center
07:31PM 30.7483 -84.2075 163° South 473 544 33,000  Level Jacksonville Center
07:32PM 30.6214 -84.1647 164° South 473 544 33,000 -50 Level Jacksonville Center
07:33PM 30.4986 -84.1222 163° South 468 539 32,900 -50 Descending Jacksonville Center
07:34PM 30.3717 -84.0794 164° South 468 539 32,900  Level Jacksonville Center
07:35PM 30.2467 -84.0394 165° South 473 544 32,900  Level Jacksonville Center
07:36PM 30.1178 -83.9947 163° South 473 544 32,900 50 Level Jacksonville Center
07:37PM 29.9908 -83.9525 164° South 473 544 33,000 50 Climbing Jacksonville Center
07:38PM 29.8617 -83.9081 163° South 473 544 33,000 -50 Level Jacksonville Center
07:39PM 29.7369 -83.8397 155° Southeast 479 551 32,900 -500 Descending Jacksonville Center
07:40PM 29.6081 -83.7572 151° Southeast 504 580 32,000 -1,160 Descending Jacksonville Center
07:41PM 29.4853 -83.6800 151° Southeast 509 586 30,600 -1,500 Descending Jacksonville Center
07:42PM 29.3647 -83.6003 150° Southeast 509 586 29,000 -1,800 Descending Jacksonville Center
07:43PM 29.2419 -83.5233 151° Southeast 501 577 27,000 -1,900 Descending Jacksonville Center
07:44PM 29.1256 -83.4464 150° Southeast 496 571 25,200 -1,736 Descending Jacksonville Center
07:45PM 29.0025 -83.3675 151° Southeast 491 565 23,500 -1,750 Descending Jacksonville Center
07:46PM 28.8903 -83.2981 152° Southeast 491 565 21,700 -1,916 Descending Jacksonville Center
07:47PM 28.7797 -83.2267 150° Southeast 478 550 19,700 -2,050 Descending Jacksonville Center
07:48PM 28.6733 -83.1622 152° Southeast 457 526 17,600 -2,263 Descending Jacksonville Center
07:49PM 28.5833 -83.1000 149° Southeast 426 490 15,400 -2,495 Descending Tampa TRACON
07:50PM 28.5000 -83.0500 152° Southeast 415 478 13,400 -2,222 Descending Tampa TRACON
07:51PM 28.4000 -83.0000 156° South 395 455 11,400 -1,263 Descending Tampa TRACON
07:52PM 28.3167 -82.9500 152° Southeast 352 405 11,000 -211 Descending Tampa TRACON
07:53PM 28.2333 -82.9333 170° South 333 383 11,000 -476 Level Tampa TRACON
07:54PM 28.1333 -82.9000 164° South 301 346 10,000 -1,476 Descending Tampa TRACON
07:55PM 28.0500 -82.8833 170° South 290 334 7,900 -2,050 Descending Tampa TRACON
07:56PM 27.9833 -82.8500 156° South 289 333 5,900 -1,900 Descending Tampa TRACON
07:57PM 27.9000 -82.8333 170° South 277 319 4,100 -1,600 Descending Tampa TRACON
07:58PM 27.8333 -82.8167 168° South 232 267 2,700 -1,050 Descending Tampa TRACON
07:59PM 27.8167 -82.7667 111° Southeast 195 224 2,000 -645 Descending Tampa TRACON
08:00PM 27.8167 -82.7167 90° East 168 193 1,400 -496 Descending Tampa TRACON
08:01PM 27.8500 -82.6833 41° Northeast 142 163 1,000 -550 Descending Tampa TRACON
08:02PM 27.8833 -82.6833 360° North 127 146 300 -700 Descending Tampa TRACON